sensor_id;sensor_type;location;lat;lon;timestamp;P1;durP1;ratioP1;P2;durP2;ratioP2
51238;SDS011;38154;47.548;18.828;2023-07-29T00:00:43;1.55;;;1.00;;
51238;SDS011;38154;47.548;18.828;2023-07-29T00:03:09;1.52;;;1.20;;
51238;SDS011;38154;47.548;18.828;2023-07-29T00:05:38;2.15;;;1.05;;
51238;SDS011;38154;47.548;18.828;2023-07-29T00:08:05;1.35;;;0.82;;
51238;SDS011;38154;47.548;18.828;2023-07-29T00:12:58;2.62;;;1.20;;
51238;SDS011;38154;47.548;18.828;2023-07-29T00:17:50;1.55;;;1.23;;
51238;SDS011;38154;47.548;18.828;2023-07-29T00:20:15;1.85;;;1.20;;
51238;SDS011;38154;47.548;18.828;2023-07-29T00:22:41;2.35;;;1.20;;
51238;SDS011;38154;47.548;18.828;2023-07-29T00:25:07;1.35;;;0.95;;
51238;SDS011;38154;47.548;18.828;2023-07-29T00:27:33;3.12;;;1.60;;
51238;SDS011;38154;47.548;18.828;2023-07-29T00:29:59;1.05;;;0.98;;
51238;SDS011;38154;47.548;18.828;2023-07-29T00:32:26;1.80;;;1.25;;
51238;SDS011;38154;47.548;18.828;2023-07-29T00:34:54;1.15;;;1.05;;
51238;SDS011;38154;47.548;18.828;2023-07-29T00:37:20;1.20;;;0.98;;
51238;SDS011;38154;47.548;18.828;2023-07-29T00:39:46;1.62;;;1.00;;
51238;SDS011;38154;47.548;18.828;2023-07-29T00:42:12;3.42;;;1.27;;
51238;SDS011;38154;47.548;18.828;2023-07-29T00:44:38;2.12;;;1.25;;
51238;SDS011;38154;47.548;18.828;2023-07-29T00:47:04;2.55;;;1.52;;
51238;SDS011;38154;47.548;18.828;2023-07-29T00:49:31;2.50;;;1.30;;
51238;SDS011;38154;47.548;18.828;2023-07-29T00:51:58;2.15;;;1.25;;
51238;SDS011;38154;47.548;18.828;2023-07-29T00:54:24;2.12;;;1.15;;
51238;SDS011;38154;47.548;18.828;2023-07-29T00:56:50;3.28;;;1.00;;
51238;SDS011;38154;47.548;18.828;2023-07-29T00:59:16;3.62;;;1.52;;
51238;SDS011;38154;47.548;18.828;2023-07-29T01:01:42;1.10;;;1.00;;
51238;SDS011;38154;47.548;18.828;2023-07-29T01:04:08;1.15;;;0.90;;
51238;SDS011;38154;47.548;18.828;2023-07-29T01:09:07;2.65;;;1.27;;
51238;SDS011;38154;47.548;18.828;2023-07-29T01:11:56;1.98;;;1.30;;
51238;SDS011;38154;47.548;18.828;2023-07-29T01:14:34;2.03;;;1.20;;
51238;SDS011;38154;47.548;18.828;2023-07-29T01:17:07;2.00;;;1.27;;
51238;SDS011;38154;47.548;18.828;2023-07-29T01:22:18;1.80;;;1.30;;
51238;SDS011;38154;47.548;18.828;2023-07-29T01:24:46;1.62;;;1.10;;
51238;SDS011;38154;47.548;18.828;2023-07-29T01:27:11;2.33;;;1.17;;
51238;SDS011;38154;47.548;18.828;2023-07-29T01:29:37;2.80;;;1.42;;
51238;SDS011;38154;47.548;18.828;2023-07-29T01:32:08;1.30;;;1.20;;
51238;SDS011;38154;47.548;18.828;2023-07-29T01:34:48;2.53;;;1.42;;
51238;SDS011;38154;47.548;18.828;2023-07-29T01:37:19;2.70;;;1.48;;
51238;SDS011;38154;47.548;18.828;2023-07-29T01:39:51;3.15;;;1.33;;
51238;SDS011;38154;47.548;18.828;2023-07-29T01:42:22;3.78;;;1.42;;
51238;SDS011;38154;47.548;18.828;2023-07-29T01:44:49;1.42;;;1.00;;
51238;SDS011;38154;47.548;18.828;2023-07-29T01:47:15;4.20;;;1.42;;
51238;SDS011;38154;47.548;18.828;2023-07-29T01:49:42;1.83;;;1.08;;
51238;SDS011;38154;47.548;18.828;2023-07-29T01:52:07;3.20;;;1.48;;
51238;SDS011;38154;47.548;18.828;2023-07-29T01:54:33;2.40;;;1.30;;
51238;SDS011;38154;47.548;18.828;2023-07-29T01:56:59;1.27;;;0.90;;
51238;SDS011;38154;47.548;18.828;2023-07-29T01:59:25;2.90;;;1.35;;
51238;SDS011;38154;47.548;18.828;2023-07-29T02:01:51;2.57;;;1.13;;
51238;SDS011;38154;47.548;18.828;2023-07-29T02:04:17;1.77;;;1.17;;
51238;SDS011;38154;47.548;18.828;2023-07-29T02:06:43;1.90;;;1.52;;
51238;SDS011;38154;47.548;18.828;2023-07-29T02:09:09;6.00;;;1.58;;
51238;SDS011;38154;47.548;18.828;2023-07-29T02:11:34;2.58;;;1.17;;
51238;SDS011;38154;47.548;18.828;2023-07-29T02:14:00;2.78;;;1.52;;
51238;SDS011;38154;47.548;18.828;2023-07-29T02:16:26;3.62;;;1.65;;
51238;SDS011;38154;47.548;18.828;2023-07-29T02:18:52;2.37;;;1.45;;
51238;SDS011;38154;47.548;18.828;2023-07-29T02:21:18;4.15;;;1.58;;
51238;SDS011;38154;47.548;18.828;2023-07-29T02:23:44;2.15;;;1.35;;
51238;SDS011;38154;47.548;18.828;2023-07-29T02:26:10;2.87;;;1.43;;
51238;SDS011;38154;47.548;18.828;2023-07-29T02:28:36;1.75;;;1.33;;
51238;SDS011;38154;47.548;18.828;2023-07-29T02:31:21;2.15;;;1.55;;
51238;SDS011;38154;47.548;18.828;2023-07-29T02:33:48;1.90;;;1.08;;
51238;SDS011;38154;47.548;18.828;2023-07-29T02:36:14;2.83;;;1.33;;
51238;SDS011;38154;47.548;18.828;2023-07-29T02:38:41;7.50;;;1.62;;
51238;SDS011;38154;47.548;18.828;2023-07-29T02:41:07;2.97;;;1.73;;
51238;SDS011;38154;47.548;18.828;2023-07-29T02:43:38;2.25;;;1.30;;
51238;SDS011;38154;47.548;18.828;2023-07-29T02:46:04;1.55;;;1.02;;
51238;SDS011;38154;47.548;18.828;2023-07-29T02:48:30;3.05;;;1.42;;
51238;SDS011;38154;47.548;18.828;2023-07-29T02:50:56;5.85;;;1.80;;
51238;SDS011;38154;47.548;18.828;2023-07-29T02:53:22;2.60;;;1.20;;
51238;SDS011;38154;47.548;18.828;2023-07-29T02:55:48;2.47;;;1.87;;
51238;SDS011;38154;47.548;18.828;2023-07-29T02:58:14;1.33;;;1.05;;
51238;SDS011;38154;47.548;18.828;2023-07-29T03:00:40;13.60;;;1.60;;
51238;SDS011;38154;47.548;18.828;2023-07-29T03:03:07;2.70;;;1.48;;
51238;SDS011;38154;47.548;18.828;2023-07-29T03:05:34;1.37;;;1.27;;
51238;SDS011;38154;47.548;18.828;2023-07-29T03:08:00;3.08;;;1.33;;
51238;SDS011;38154;47.548;18.828;2023-07-29T03:10:26;2.95;;;1.52;;
51238;SDS011;38154;47.548;18.828;2023-07-29T03:12:55;2.35;;;1.37;;
51238;SDS011;38154;47.548;18.828;2023-07-29T03:15:25;1.37;;;1.25;;
51238;SDS011;38154;47.548;18.828;2023-07-29T03:17:51;4.95;;;1.80;;
51238;SDS011;38154;47.548;18.828;2023-07-29T03:22:44;2.95;;;1.42;;
51238;SDS011;38154;47.548;18.828;2023-07-29T03:25:10;2.33;;;1.52;;
51238;SDS011;38154;47.548;18.828;2023-07-29T03:27:36;1.65;;;1.20;;
51238;SDS011;38154;47.548;18.828;2023-07-29T03:30:03;2.95;;;1.30;;
51238;SDS011;38154;47.548;18.828;2023-07-29T03:32:29;2.92;;;1.52;;
51238;SDS011;38154;47.548;18.828;2023-07-29T03:34:55;1.48;;;1.10;;
51238;SDS011;38154;47.548;18.828;2023-07-29T03:37:21;2.47;;;1.23;;
51238;SDS011;38154;47.548;18.828;2023-07-29T03:39:47;2.78;;;1.30;;
51238;SDS011;38154;47.548;18.828;2023-07-29T03:42:13;2.47;;;1.58;;
51238;SDS011;38154;47.548;18.828;2023-07-29T03:44:39;2.50;;;1.30;;
51238;SDS011;38154;47.548;18.828;2023-07-29T03:47:05;2.05;;;1.40;;
51238;SDS011;38154;47.548;18.828;2023-07-29T03:49:32;2.37;;;1.30;;
51238;SDS011;38154;47.548;18.828;2023-07-29T03:51:57;2.55;;;1.40;;
51238;SDS011;38154;47.548;18.828;2023-07-29T03:54:23;2.53;;;1.33;;
51238;SDS011;38154;47.548;18.828;2023-07-29T03:56:49;3.53;;;1.47;;
51238;SDS011;38154;47.548;18.828;2023-07-29T03:59:15;1.62;;;1.40;;
51238;SDS011;38154;47.548;18.828;2023-07-29T04:01:42;2.58;;;1.33;;
51238;SDS011;38154;47.548;18.828;2023-07-29T04:04:08;2.70;;;1.62;;
51238;SDS011;38154;47.548;18.828;2023-07-29T04:06:34;1.55;;;1.20;;
51238;SDS011;38154;47.548;18.828;2023-07-29T04:09:00;2.75;;;1.50;;
51238;SDS011;38154;47.548;18.828;2023-07-29T04:11:26;1.87;;;1.23;;
51238;SDS011;38154;47.548;18.828;2023-07-29T04:13:52;1.90;;;1.30;;
51238;SDS011;38154;47.548;18.828;2023-07-29T04:16:18;1.92;;;1.35;;
51238;SDS011;38154;47.548;18.828;2023-07-29T04:18:44;1.20;;;1.10;;
51238;SDS011;38154;47.548;18.828;2023-07-29T04:21:10;2.35;;;1.25;;
51238;SDS011;38154;47.548;18.828;2023-07-29T04:23:36;2.72;;;1.17;;
51238;SDS011;38154;47.548;18.828;2023-07-29T04:26:02;2.50;;;1.12;;
51238;SDS011;38154;47.548;18.828;2023-07-29T04:28:28;2.00;;;1.30;;
51238;SDS011;38154;47.548;18.828;2023-07-29T04:30:53;2.15;;;1.30;;
51238;SDS011;38154;47.548;18.828;2023-07-29T04:33:20;1.92;;;1.20;;
51238;SDS011;38154;47.548;18.828;2023-07-29T04:35:46;2.05;;;1.33;;
51238;SDS011;38154;47.548;18.828;2023-07-29T04:38:12;1.37;;;1.05;;
51238;SDS011;38154;47.548;18.828;2023-07-29T04:40:38;3.03;;;1.25;;
51238;SDS011;38154;47.548;18.828;2023-07-29T04:43:04;1.35;;;1.20;;
51238;SDS011;38154;47.548;18.828;2023-07-29T04:45:30;2.53;;;1.58;;
51238;SDS011;38154;47.548;18.828;2023-07-29T04:47:56;2.25;;;1.37;;
51238;SDS011;38154;47.548;18.828;2023-07-29T04:50:23;2.05;;;1.40;;
51238;SDS011;38154;47.548;18.828;2023-07-29T04:52:49;2.33;;;1.58;;
51238;SDS011;38154;47.548;18.828;2023-07-29T04:55:15;2.45;;;1.40;;
51238;SDS011;38154;47.548;18.828;2023-07-29T04:57:41;2.25;;;1.30;;
51238;SDS011;38154;47.548;18.828;2023-07-29T05:00:07;1.30;;;1.05;;
51238;SDS011;38154;47.548;18.828;2023-07-29T05:02:33;2.28;;;1.35;;
51238;SDS011;38154;47.548;18.828;2023-07-29T05:04:59;3.08;;;1.52;;
51238;SDS011;38154;47.548;18.828;2023-07-29T05:07:25;6.35;;;1.20;;
51238;SDS011;38154;47.548;18.828;2023-07-29T05:09:51;2.55;;;1.27;;
51238;SDS011;38154;47.548;18.828;2023-07-29T05:12:17;2.40;;;1.62;;
51238;SDS011;38154;47.548;18.828;2023-07-29T05:14:42;1.55;;;0.88;;
51238;SDS011;38154;47.548;18.828;2023-07-29T05:17:08;2.50;;;1.48;;
51238;SDS011;38154;47.548;18.828;2023-07-29T05:19:34;1.48;;;1.15;;
51238;SDS011;38154;47.548;18.828;2023-07-29T05:22:00;4.70;;;1.33;;
51238;SDS011;38154;47.548;18.828;2023-07-29T05:24:26;2.87;;;1.58;;
51238;SDS011;38154;47.548;18.828;2023-07-29T05:26:52;2.37;;;1.20;;
51238;SDS011;38154;47.548;18.828;2023-07-29T05:29:18;3.97;;;1.27;;
51238;SDS011;38154;47.548;18.828;2023-07-29T05:31:44;2.33;;;1.83;;
51238;SDS011;38154;47.548;18.828;2023-07-29T05:34:10;2.28;;;1.37;;
51238;SDS011;38154;47.548;18.828;2023-07-29T05:36:36;1.33;;;1.23;;
51238;SDS011;38154;47.548;18.828;2023-07-29T05:39:01;2.62;;;1.55;;
51238;SDS011;38154;47.548;18.828;2023-07-29T05:41:27;2.87;;;1.58;;
51238;SDS011;38154;47.548;18.828;2023-07-29T05:43:54;3.65;;;1.77;;
51238;SDS011;38154;47.548;18.828;2023-07-29T05:46:20;1.98;;;1.42;;
51238;SDS011;38154;47.548;18.828;2023-07-29T05:48:46;4.25;;;1.75;;
51238;SDS011;38154;47.548;18.828;2023-07-29T05:51:12;3.08;;;1.62;;
51238;SDS011;38154;47.548;18.828;2023-07-29T05:53:37;3.17;;;1.62;;
51238;SDS011;38154;47.548;18.828;2023-07-29T05:56:03;1.67;;;1.10;;
51238;SDS011;38154;47.548;18.828;2023-07-29T05:58:29;1.95;;;1.17;;
51238;SDS011;38154;47.548;18.828;2023-07-29T06:00:57;3.85;;;1.40;;
51238;SDS011;38154;47.548;18.828;2023-07-29T06:03:23;3.75;;;1.70;;
51238;SDS011;38154;47.548;18.828;2023-07-29T06:05:49;1.90;;;1.50;;
51238;SDS011;38154;47.548;18.828;2023-07-29T06:08:15;2.15;;;1.25;;
51238;SDS011;38154;47.548;18.828;2023-07-29T06:10:41;3.20;;;1.55;;
51238;SDS011;38154;47.548;18.828;2023-07-29T06:13:07;2.47;;;1.42;;
51238;SDS011;38154;47.548;18.828;2023-07-29T06:17:59;2.17;;;1.40;;
51238;SDS011;38154;47.548;18.828;2023-07-29T06:20:25;8.38;;;3.90;;
51238;SDS011;38154;47.548;18.828;2023-07-29T06:22:50;4.28;;;2.35;;
51238;SDS011;38154;47.548;18.828;2023-07-29T06:25:16;4.85;;;2.83;;
51238;SDS011;38154;47.548;18.828;2023-07-29T06:27:42;3.45;;;1.45;;
51238;SDS011;38154;47.548;18.828;2023-07-29T06:30:08;2.58;;;1.60;;
51238;SDS011;38154;47.548;18.828;2023-07-29T06:35:00;1.73;;;1.10;;
51238;SDS011;38154;47.548;18.828;2023-07-29T06:39:51;4.32;;;1.50;;
51238;SDS011;38154;47.548;18.828;2023-07-29T06:42:17;2.45;;;1.20;;
51238;SDS011;38154;47.548;18.828;2023-07-29T06:44:43;2.30;;;1.27;;
51238;SDS011;38154;47.548;18.828;2023-07-29T06:47:11;1.40;;;1.15;;
51238;SDS011;38154;47.548;18.828;2023-07-29T06:49:37;0.93;;;0.70;;
51238;SDS011;38154;47.548;18.828;2023-07-29T06:52:03;2.08;;;1.17;;
51238;SDS011;38154;47.548;18.828;2023-07-29T06:54:30;1.70;;;0.90;;
51238;SDS011;38154;47.548;18.828;2023-07-29T06:56:55;2.55;;;1.40;;
51238;SDS011;38154;47.548;18.828;2023-07-29T06:59:21;2.83;;;0.93;;
51238;SDS011;38154;47.548;18.828;2023-07-29T07:01:47;1.27;;;0.80;;
51238;SDS011;38154;47.548;18.828;2023-07-29T07:04:13;1.05;;;0.80;;
51238;SDS011;38154;47.548;18.828;2023-07-29T07:06:39;1.73;;;0.98;;
51238;SDS011;38154;47.548;18.828;2023-07-29T07:09:05;1.98;;;1.10;;
51238;SDS011;38154;47.548;18.828;2023-07-29T07:11:31;2.15;;;1.40;;
51238;SDS011;38154;47.548;18.828;2023-07-29T07:13:57;0.73;;;0.73;;
51238;SDS011;38154;47.548;18.828;2023-07-29T07:16:23;1.33;;;1.08;;
51238;SDS011;38154;47.548;18.828;2023-07-29T07:18:48;1.27;;;0.90;;
51238;SDS011;38154;47.548;18.828;2023-07-29T07:21:14;2.15;;;1.25;;
51238;SDS011;38154;47.548;18.828;2023-07-29T07:23:40;1.62;;;1.23;;
51238;SDS011;38154;47.548;18.828;2023-07-29T07:26:06;1.40;;;0.90;;
51238;SDS011;38154;47.548;18.828;2023-07-29T07:28:32;1.45;;;1.00;;
51238;SDS011;38154;47.548;18.828;2023-07-29T07:30:58;1.73;;;0.93;;
51238;SDS011;38154;47.548;18.828;2023-07-29T07:33:24;1.92;;;0.95;;
51238;SDS011;38154;47.548;18.828;2023-07-29T07:35:50;1.17;;;1.08;;
51238;SDS011;38154;47.548;18.828;2023-07-29T07:38:16;2.30;;;1.00;;
51238;SDS011;38154;47.548;18.828;2023-07-29T07:40:43;1.15;;;0.90;;
51238;SDS011;38154;47.548;18.828;2023-07-29T07:43:18;1.52;;;0.90;;
51238;SDS011;38154;47.548;18.828;2023-07-29T07:45:44;0.70;;;0.70;;
51238;SDS011;38154;47.548;18.828;2023-07-29T07:48:10;1.30;;;0.82;;
51238;SDS011;38154;47.548;18.828;2023-07-29T07:50:38;1.55;;;1.23;;
51238;SDS011;38154;47.548;18.828;2023-07-29T07:53:05;1.25;;;0.82;;
51238;SDS011;38154;47.548;18.828;2023-07-29T07:55:31;1.92;;;1.00;;
51238;SDS011;38154;47.548;18.828;2023-07-29T07:57:57;1.33;;;0.85;;
51238;SDS011;38154;47.548;18.828;2023-07-29T08:00:22;1.45;;;0.88;;
51238;SDS011;38154;47.548;18.828;2023-07-29T08:02:48;0.68;;;0.68;;
51238;SDS011;38154;47.548;18.828;2023-07-29T08:05:14;1.42;;;0.80;;
51238;SDS011;38154;47.548;18.828;2023-07-29T08:07:40;1.10;;;0.80;;
51238;SDS011;38154;47.548;18.828;2023-07-29T08:10:06;1.40;;;1.05;;
51238;SDS011;38154;47.548;18.828;2023-07-29T08:12:32;1.20;;;0.70;;
51238;SDS011;38154;47.548;18.828;2023-07-29T08:14:58;2.60;;;0.98;;
51238;SDS011;38154;47.548;18.828;2023-07-29T08:17:24;1.50;;;0.85;;
51238;SDS011;38154;47.548;18.828;2023-07-29T08:19:50;1.05;;;0.90;;
51238;SDS011;38154;47.548;18.828;2023-07-29T08:22:16;1.30;;;0.60;;
51238;SDS011;38154;47.548;18.828;2023-07-29T08:24:42;1.12;;;0.80;;
51238;SDS011;38154;47.548;18.828;2023-07-29T08:27:08;1.20;;;0.60;;
51238;SDS011;38154;47.548;18.828;2023-07-29T08:29:35;1.58;;;0.85;;
51238;SDS011;38154;47.548;18.828;2023-07-29T08:32:00;0.82;;;0.80;;
51238;SDS011;38154;47.548;18.828;2023-07-29T08:34:26;1.48;;;0.95;;
51238;SDS011;38154;47.548;18.828;2023-07-29T08:36:52;1.17;;;0.88;;
51238;SDS011;38154;47.548;18.828;2023-07-29T08:39:18;1.08;;;0.70;;
51238;SDS011;38154;47.548;18.828;2023-07-29T08:44:41;1.15;;;0.52;;
51238;SDS011;38154;47.548;18.828;2023-07-29T08:47:08;0.70;;;0.68;;
51238;SDS011;38154;47.548;18.828;2023-07-29T08:49:34;0.60;;;0.60;;
51238;SDS011;38154;47.548;18.828;2023-07-29T08:52:01;0.88;;;0.50;;
51238;SDS011;38154;47.548;18.828;2023-07-29T08:54:27;0.68;;;0.62;;
51238;SDS011;38154;47.548;18.828;2023-07-29T08:56:54;0.70;;;0.65;;
51238;SDS011;38154;47.548;18.828;2023-07-29T08:59:20;0.47;;;0.43;;
51238;SDS011;38154;47.548;18.828;2023-07-29T09:01:46;0.60;;;0.60;;
51238;SDS011;38154;47.548;18.828;2023-07-29T09:04:13;0.45;;;0.40;;
51238;SDS011;38154;47.548;18.828;2023-07-29T09:06:39;0.68;;;0.50;;
51238;SDS011;38154;47.548;18.828;2023-07-29T09:09:07;1.00;;;0.80;;
51238;SDS011;38154;47.548;18.828;2023-07-29T09:11:33;1.20;;;0.60;;
51238;SDS011;38154;47.548;18.828;2023-07-29T09:13:59;1.45;;;0.62;;
51238;SDS011;38154;47.548;18.828;2023-07-29T09:16:25;0.95;;;0.65;;
51238;SDS011;38154;47.548;18.828;2023-07-29T09:18:51;0.98;;;0.60;;
51238;SDS011;38154;47.548;18.828;2023-07-29T09:21:18;0.62;;;0.62;;
51238;SDS011;38154;47.548;18.828;2023-07-29T09:23:50;0.93;;;0.57;;
51238;SDS011;38154;47.548;18.828;2023-07-29T09:26:23;0.43;;;0.40;;
51238;SDS011;38154;47.548;18.828;2023-07-29T09:28:54;0.40;;;0.40;;
51238;SDS011;38154;47.548;18.828;2023-07-29T09:31:27;1.27;;;0.70;;
51238;SDS011;38154;47.548;18.828;2023-07-29T09:34:01;0.80;;;0.47;;
51238;SDS011;38154;47.548;18.828;2023-07-29T09:36:32;0.95;;;0.43;;
51238;SDS011;38154;47.548;18.828;2023-07-29T09:38:59;1.37;;;0.50;;
51238;SDS011;38154;47.548;18.828;2023-07-29T09:41:26;0.75;;;0.40;;
51238;SDS011;38154;47.548;18.828;2023-07-29T09:43:57;0.70;;;0.57;;
51238;SDS011;38154;47.548;18.828;2023-07-29T09:46:24;0.55;;;0.50;;
51238;SDS011;38154;47.548;18.828;2023-07-29T09:48:52;0.60;;;0.60;;
51238;SDS011;38154;47.548;18.828;2023-07-29T09:51:22;0.95;;;0.62;;
51238;SDS011;38154;47.548;18.828;2023-07-29T09:53:50;0.37;;;0.30;;
51238;SDS011;38154;47.548;18.828;2023-07-29T09:56:16;1.27;;;0.80;;
51238;SDS011;38154;47.548;18.828;2023-07-29T09:58:43;0.70;;;0.60;;
51238;SDS011;38154;47.548;18.828;2023-07-29T10:01:11;0.60;;;0.40;;
51238;SDS011;38154;47.548;18.828;2023-07-29T10:03:37;0.95;;;0.62;;
51238;SDS011;38154;47.548;18.828;2023-07-29T10:06:04;0.88;;;0.65;;
51238;SDS011;38154;47.548;18.828;2023-07-29T10:08:31;0.85;;;0.73;;
51238;SDS011;38154;47.548;18.828;2023-07-29T10:11:01;0.82;;;0.60;;
51238;SDS011;38154;47.548;18.828;2023-07-29T10:13:27;0.62;;;0.50;;
51238;SDS011;38154;47.548;18.828;2023-07-29T10:15:54;1.77;;;0.52;;
51238;SDS011;38154;47.548;18.828;2023-07-29T10:18:24;1.00;;;0.77;;
51238;SDS011;38154;47.548;18.828;2023-07-29T10:20:51;0.88;;;0.60;;
51238;SDS011;38154;47.548;18.828;2023-07-29T10:23:18;0.60;;;0.60;;
51238;SDS011;38154;47.548;18.828;2023-07-29T10:25:46;1.60;;;0.80;;
51238;SDS011;38154;47.548;18.828;2023-07-29T10:28:15;0.98;;;0.50;;
51238;SDS011;38154;47.548;18.828;2023-07-29T10:30:43;0.62;;;0.43;;
51238;SDS011;38154;47.548;18.828;2023-07-29T10:33:08;0.70;;;0.57;;
51238;SDS011;38154;47.548;18.828;2023-07-29T10:35:36;1.55;;;0.93;;
51238;SDS011;38154;47.548;18.828;2023-07-29T10:38:03;1.33;;;0.82;;
51238;SDS011;38154;47.548;18.828;2023-07-29T10:40:46;0.45;;;0.43;;
51238;SDS011;38154;47.548;18.828;2023-07-29T10:43:26;1.15;;;0.57;;
51238;SDS011;38154;47.548;18.828;2023-07-29T10:45:53;0.75;;;0.62;;
51238;SDS011;38154;47.548;18.828;2023-07-29T10:53:55;0.70;;;0.60;;
51238;SDS011;38154;47.548;18.828;2023-07-29T10:56:26;0.95;;;0.80;;
51238;SDS011;38154;47.548;18.828;2023-07-29T10:59:23;0.62;;;0.50;;
51238;SDS011;38154;47.548;18.828;2023-07-29T11:15:00;2.95;;;1.15;;
51238;SDS011;38154;47.548;18.828;2023-07-29T11:17:30;0.80;;;0.60;;
51238;SDS011;38154;47.548;18.828;2023-07-29T11:20:00;2.05;;;0.60;;
51238;SDS011;38154;47.548;18.828;2023-07-29T11:22:28;0.77;;;0.47;;
51238;SDS011;38154;47.548;18.828;2023-07-29T11:24:54;0.90;;;0.80;;
51238;SDS011;38154;47.548;18.828;2023-07-29T11:27:20;0.40;;;0.40;;
51238;SDS011;38154;47.548;18.828;2023-07-29T11:29:46;1.48;;;0.80;;
51238;SDS011;38154;47.548;18.828;2023-07-29T11:32:13;2.45;;;1.33;;
51238;SDS011;38154;47.548;18.828;2023-07-29T11:34:40;1.50;;;1.40;;
51238;SDS011;38154;47.548;18.828;2023-07-29T11:37:08;1.60;;;0.65;;
51238;SDS011;38154;47.548;18.828;2023-07-29T11:39:39;1.15;;;0.60;;
51238;SDS011;38154;47.548;18.828;2023-07-29T11:42:13;1.85;;;0.60;;
51238;SDS011;38154;47.548;18.828;2023-07-29T11:44:40;0.88;;;0.70;;
51238;SDS011;38154;47.548;18.828;2023-07-29T11:47:09;0.95;;;0.60;;
51238;SDS011;38154;47.548;18.828;2023-07-29T11:49:38;0.85;;;0.65;;
51238;SDS011;38154;47.548;18.828;2023-07-29T11:52:08;4.80;;;1.10;;
51238;SDS011;38154;47.548;18.828;2023-07-29T11:54:36;1.12;;;0.57;;
51238;SDS011;38154;47.548;18.828;2023-07-29T11:57:06;0.55;;;0.52;;
51238;SDS011;38154;47.548;18.828;2023-07-29T11:59:34;0.90;;;0.60;;
51238;SDS011;38154;47.548;18.828;2023-07-29T12:02:01;0.90;;;0.62;;
51238;SDS011;38154;47.548;18.828;2023-07-29T12:04:30;1.20;;;0.77;;
51238;SDS011;38154;47.548;18.828;2023-07-29T12:06:57;1.27;;;0.90;;
51238;SDS011;38154;47.548;18.828;2023-07-29T12:09:24;1.10;;;0.62;;
51238;SDS011;38154;47.548;18.828;2023-07-29T12:11:52;2.22;;;0.68;;
51238;SDS011;38154;47.548;18.828;2023-07-29T12:14:18;1.70;;;0.80;;
51238;SDS011;38154;47.548;18.828;2023-07-29T12:16:44;1.17;;;0.88;;
51238;SDS011;38154;47.548;18.828;2023-07-29T12:19:13;0.98;;;0.68;;
51238;SDS011;38154;47.548;18.828;2023-07-29T12:21:40;0.82;;;0.73;;
51238;SDS011;38154;47.548;18.828;2023-07-29T12:24:07;1.02;;;0.82;;
51238;SDS011;38154;47.548;18.828;2023-07-29T12:26:33;1.73;;;0.82;;
51238;SDS011;38154;47.548;18.828;2023-07-29T12:29:11;1.20;;;0.90;;
51238;SDS011;38154;47.548;18.828;2023-07-29T12:31:38;0.95;;;0.70;;
51238;SDS011;38154;47.548;18.828;2023-07-29T12:34:04;1.55;;;1.10;;
51238;SDS011;38154;47.548;18.828;2023-07-29T12:36:43;1.17;;;0.60;;
51238;SDS011;38154;47.548;18.828;2023-07-29T12:39:31;2.47;;;1.00;;
51238;SDS011;38154;47.548;18.828;2023-07-29T12:41:59;1.20;;;0.80;;
51238;SDS011;38154;47.548;18.828;2023-07-29T12:44:33;2.05;;;0.90;;
51238;SDS011;38154;47.548;18.828;2023-07-29T12:47:01;1.65;;;0.88;;
51238;SDS011;38154;47.548;18.828;2023-07-29T12:49:31;1.65;;;0.90;;
51238;SDS011;38154;47.548;18.828;2023-07-29T12:51:57;2.33;;;0.98;;
51238;SDS011;38154;47.548;18.828;2023-07-29T12:54:24;1.62;;;0.85;;
51238;SDS011;38154;47.548;18.828;2023-07-29T12:56:50;1.35;;;0.90;;
51238;SDS011;38154;47.548;18.828;2023-07-29T12:59:16;0.95;;;0.60;;
51238;SDS011;38154;47.548;18.828;2023-07-29T13:01:42;0.73;;;0.65;;
51238;SDS011;38154;47.548;18.828;2023-07-29T13:04:09;1.17;;;0.85;;
51238;SDS011;38154;47.548;18.828;2023-07-29T13:06:35;1.98;;;1.20;;
51238;SDS011;38154;47.548;18.828;2023-07-29T13:09:01;1.40;;;0.70;;
51238;SDS011;38154;47.548;18.828;2023-07-29T13:11:28;2.33;;;0.80;;
51238;SDS011;38154;47.548;18.828;2023-07-29T13:13:54;1.02;;;0.88;;
51238;SDS011;38154;47.548;18.828;2023-07-29T13:16:20;1.73;;;0.90;;
51238;SDS011;38154;47.548;18.828;2023-07-29T13:18:46;1.48;;;0.90;;
51238;SDS011;38154;47.548;18.828;2023-07-29T13:21:12;1.58;;;0.90;;
51238;SDS011;38154;47.548;18.828;2023-07-29T13:23:38;1.37;;;0.70;;
51238;SDS011;38154;47.548;18.828;2023-07-29T13:26:03;1.08;;;0.57;;
51238;SDS011;38154;47.548;18.828;2023-07-29T13:28:29;1.20;;;0.70;;
51238;SDS011;38154;47.548;18.828;2023-07-29T13:30:55;1.37;;;0.68;;
51238;SDS011;38154;47.548;18.828;2023-07-29T13:33:21;1.27;;;0.70;;
51238;SDS011;38154;47.548;18.828;2023-07-29T13:35:47;1.62;;;0.75;;
51238;SDS011;38154;47.548;18.828;2023-07-29T13:38:13;0.90;;;0.77;;
51238;SDS011;38154;47.548;18.828;2023-07-29T13:40:38;1.52;;;0.77;;
51238;SDS011;38154;47.548;18.828;2023-07-29T13:43:04;1.25;;;0.82;;
51238;SDS011;38154;47.548;18.828;2023-07-29T13:45:30;1.23;;;1.00;;
51238;SDS011;38154;47.548;18.828;2023-07-29T13:47:57;1.05;;;0.75;;
51238;SDS011;38154;47.548;18.828;2023-07-29T13:50:23;1.30;;;0.88;;
51238;SDS011;38154;47.548;18.828;2023-07-29T13:52:48;1.15;;;0.80;;
51238;SDS011;38154;47.548;18.828;2023-07-29T13:55:14;5.00;;;0.88;;
51238;SDS011;38154;47.548;18.828;2023-07-29T13:57:40;1.00;;;0.70;;
51238;SDS011;38154;47.548;18.828;2023-07-29T14:00:06;3.03;;;0.90;;
51238;SDS011;38154;47.548;18.828;2023-07-29T14:02:33;0.70;;;0.70;;
51238;SDS011;38154;47.548;18.828;2023-07-29T14:04:59;1.15;;;0.88;;
51238;SDS011;38154;47.548;18.828;2023-07-29T14:07:25;0.82;;;0.80;;
51238;SDS011;38154;47.548;18.828;2023-07-29T14:09:51;1.05;;;0.60;;
51238;SDS011;38154;47.548;18.828;2023-07-29T14:12:17;1.12;;;0.70;;
51238;SDS011;38154;47.548;18.828;2023-07-29T14:14:43;0.60;;;0.60;;
51238;SDS011;38154;47.548;18.828;2023-07-29T14:17:09;1.10;;;0.60;;
51238;SDS011;38154;47.548;18.828;2023-07-29T14:19:35;1.40;;;0.70;;
51238;SDS011;38154;47.548;18.828;2023-07-29T14:22:02;1.87;;;0.80;;
51238;SDS011;38154;47.548;18.828;2023-07-29T14:24:28;5.22;;;1.10;;
51238;SDS011;38154;47.548;18.828;2023-07-29T14:26:54;1.05;;;0.73;;
51238;SDS011;38154;47.548;18.828;2023-07-29T14:29:20;0.82;;;0.75;;
51238;SDS011;38154;47.548;18.828;2023-07-29T14:31:46;0.75;;;0.62;;
51238;SDS011;38154;47.548;18.828;2023-07-29T14:34:12;1.20;;;0.70;;
51238;SDS011;38154;47.548;18.828;2023-07-29T14:36:38;1.80;;;0.80;;
51238;SDS011;38154;47.548;18.828;2023-07-29T14:39:04;1.00;;;0.88;;
51238;SDS011;38154;47.548;18.828;2023-07-29T14:41:30;0.68;;;0.60;;
51238;SDS011;38154;47.548;18.828;2023-07-29T14:43:56;1.00;;;0.80;;
51238;SDS011;38154;47.548;18.828;2023-07-29T14:46:22;1.62;;;0.80;;
51238;SDS011;38154;47.548;18.828;2023-07-29T14:48:48;1.10;;;0.80;;
51238;SDS011;38154;47.548;18.828;2023-07-29T14:51:14;1.83;;;0.90;;
51238;SDS011;38154;47.548;18.828;2023-07-29T14:53:40;0.98;;;0.80;;
51238;SDS011;38154;47.548;18.828;2023-07-29T14:56:06;0.93;;;0.57;;
51238;SDS011;38154;47.548;18.828;2023-07-29T14:58:32;0.75;;;0.52;;
51238;SDS011;38154;47.548;18.828;2023-07-29T15:00:58;1.37;;;0.85;;
51238;SDS011;38154;47.548;18.828;2023-07-29T15:03:24;0.70;;;0.55;;
51238;SDS011;38154;47.548;18.828;2023-07-29T15:05:50;1.60;;;1.15;;
51238;SDS011;38154;47.548;18.828;2023-07-29T15:08:16;1.08;;;0.80;;
51238;SDS011;38154;47.548;18.828;2023-07-29T15:10:46;0.95;;;0.73;;
51238;SDS011;38154;47.548;18.828;2023-07-29T15:13:13;1.60;;;1.00;;